Time;durP1;ratioP1;P1;durP2;ratioP2;P2;SDS_P1;SDS_P2;PMS_P1;PMS_P2;Temp;Humidity;BMP_temperature;BMP_pressure;BME280_temperature;BME280_humidity;BME280_pressure;Samples;Min_cycle;Max_cycle;Signal;HPM_P1;HPM_P2
2021/09/08 00:01:05;;;;;;;6.10;3.40;;;409.80;1894.40;;;;;;5075618;28;20052;-79
2021/09/08 00:03:31;;;;;;;8.00;3.22;;;409.70;1894.40;;;;;;5076903;28;20031;-79
2021/09/08 00:05:57;;;;;;;5.90;3.25;;;409.70;1894.40;;;;;;5076310;28;20471;-79
2021/09/08 00:08:25;;;;;;;6.25;3.22;;;409.60;1894.40;;;;;;5076448;28;20024;-79
2021/09/08 00:10:51;;;;;;;5.80;3.78;;;384.90;1868.80;;;;;;5075962;28;20048;-79
2021/09/08 00:13:17;;;;;;;7.35;3.63;;;384.80;1894.40;;;;;;5058353;28;20123;-79
2021/09/08 00:15:43;;;;;;;7.90;4.05;;;384.80;1894.40;;;;;;5057475;28;20056;-79
2021/09/08 00:18:09;;;;;;;6.93;3.72;;;384.70;1894.40;;;;;;5076473;28;20099;-79
2021/09/08 00:20:35;;;;;;;5.13;3.92;;;384.70;1894.40;;;;;;5076438;28;20421;-79
2021/09/08 00:23:01;;;;;;;6.40;3.60;;;384.70;1894.40;;;;;;5076321;28;20024;-79
2021/09/08 00:25:26;;;;;;;10.35;3.90;;;384.70;1894.40;;;;;;5075835;28;20495;-78
2021/09/08 00:27:52;;;;;;;5.60;3.65;;;384.60;1920.00;;;;;;5058333;28;20100;-81
2021/09/08 00:30:18;;;;;;;8.27;4.38;;;384.60;1920.00;;;;;;5085144;28;20024;-79
2021/09/08 00:32:44;;;;;;;9.32;4.45;;;384.60;1920.00;;;;;;5076074;28;20043;-78
2021/09/08 00:35:10;;;;;;;7.13;3.95;;;384.60;1920.00;;;;;;5075742;28;20079;-79
2021/09/08 00:37:38;;;;;;;12.40;5.63;;;384.60;1920.00;;;;;;5075890;28;20024;-79
2021/09/08 00:40:04;;;;;;;12.07;8.57;;;384.60;1920.00;;;;;;5056934;28;20055;-80
2021/09/08 00:42:30;;;;;;;14.65;8.65;;;384.60;1945.60;;;;;;5070143;28;20136;-79
2021/09/08 00:44:56;;;;;;;12.48;8.60;;;384.60;1945.60;;;;;;5075214;28;20488;-79
2021/09/08 00:47:22;;;;;;;15.35;8.48;;;384.60;1945.60;;;;;;5075188;28;20044;-79
2021/09/08 00:49:48;;;;;;;18.45;7.60;;;384.60;1945.60;;;;;;5074878;28;20048;-78
2021/09/08 00:52:15;;;;;;;9.88;5.82;;;384.50;1945.60;;;;;;5057413;28;20131;-79
2021/09/08 00:54:49;;;;;;;10.23;5.47;;;384.50;1945.60;;;;;;5075416;28;20419;-79
2021/09/08 00:57:17;;;;;;;9.82;4.78;;;384.40;1945.60;;;;;;5073887;28;20564;-79
2021/09/08 00:59:43;;;;;;;8.27;4.35;;;384.40;1971.20;;;;;;5048569;28;20016;-78
2021/09/08 01:02:09;;;;;;;9.20;4.05;;;384.40;1971.20;;;;;;5065541;28;20068;-78
2021/09/08 01:04:35;;;;;;;6.32;4.07;;;384.40;1971.20;;;;;;5070481;28;20025;-79
2021/09/08 01:07:03;;;;;;;5.93;3.45;;;384.30;1971.20;;;;;;5072050;28;20025;-77
2021/09/08 01:09:28;;;;;;;6.07;3.35;;;384.20;1971.20;;;;;;5070082;28;20481;-78
2021/09/08 01:11:54;;;;;;;5.22;3.58;;;384.20;1971.20;;;;;;5075346;28;20113;-77
2021/09/08 01:14:20;;;;;;;5.65;3.50;;;384.10;1996.80;;;;;;5075550;28;20058;-79
2021/09/08 01:16:51;;;;;;;6.00;3.42;;;384.10;1996.80;;;;;;5075205;28;20074;-79
2021/09/08 01:19:16;;;;;;;7.40;4.70;;;384.00;1996.80;;;;;;5057791;28;20106;-79
2021/09/08 01:21:42;;;;;;;6.65;3.17;;;384.10;1996.80;;;;;;5075099;28;20480;-79
2021/09/08 01:24:09;;;;;;;4.95;3.10;;;384.00;2022.40;;;;;;5074196;28;20021;-78
2021/09/08 01:26:40;;;;;;;5.03;2.92;;;384.00;2022.40;;;;;;5074638;28;20028;-78
2021/09/08 01:29:07;;;;;;;5.28;3.15;;;359.30;2022.40;;;;;;5054175;28;20036;-78
2021/09/08 01:31:33;;;;;;;5.28;3.30;;;359.30;2022.40;;;;;;5056498;28;20045;-78
2021/09/08 01:33:58;;;;;;;6.13;3.60;;;359.30;2022.40;;;;;;5074707;28;20028;-78
2021/09/08 01:36:24;;;;;;;7.38;4.53;;;359.30;2022.40;;;;;;5056898;28;20427;-78
2021/09/08 01:38:50;;;;;;;8.43;3.50;;;359.30;2048.00;;;;;;5074742;28;20028;-77
2021/09/08 01:41:16;;;;;;;5.68;2.85;;;359.30;2022.40;;;;;;5063950;28;20025;-77
2021/09/08 01:43:47;;;;;;;5.50;3.75;;;359.30;2048.00;;;;;;5057876;28;20035;-79
2021/09/08 01:46:23;;;;;;;6.47;3.03;;;359.20;2048.00;;;;;;5076656;28;20056;-78
2021/09/08 01:48:49;;;;;;;8.65;3.72;;;359.20;2048.00;;;;;;5056797;28;20032;-78
2021/09/08 01:51:16;;;;;;;5.25;3.53;;;359.20;2048.00;;;;;;5074617;28;20017;-78
2021/09/08 01:53:42;;;;;;;6.28;3.83;;;359.30;2048.00;;;;;;5074528;28;20024;-78
2021/09/08 01:56:09;;;;;;;5.30;3.45;;;359.10;2048.00;;;;;;5073887;28;20048;-78
2021/09/08 01:58:35;;;;;;;5.82;3.83;;;359.10;2048.00;;;;;;5074387;28;20024;-78
2021/09/08 02:01:03;;;;;;;5.18;3.13;;;359.10;2073.60;;;;;;5072410;28;20102;-79
2021/09/08 02:03:28;;;;;;;5.57;3.50;;;359.10;2048.00;;;;;;5065282;28;20381;-78
2021/09/08 02:05:54;;;;;;;5.25;3.60;;;359.10;2048.00;;;;;;5051762;28;20038;-78
2021/09/08 02:08:20;;;;;;;5.75;3.38;;;359.10;2073.60;;;;;;5074411;28;20028;-78
2021/09/08 02:10:45;;;;;;;8.35;4.25;;;359.10;2073.60;;;;;;5056279;28;20028;-78
2021/09/08 02:13:11;;;;;;;5.75;3.22;;;359.10;2073.60;;;;;;5055894;28;20070;-79
2021/09/08 02:15:37;;;;;;;6.80;3.58;;;359.00;2073.60;;;;;;5056237;28;20062;-79
2021/09/08 02:18:03;;;;;;;7.65;3.60;;;359.00;2073.60;;;;;;5056483;28;20108;-78
2021/09/08 02:20:29;;;;;;;7.88;3.65;;;358.90;2073.60;;;;;;5074024;28;20423;-79
2021/09/08 02:22:54;;;;;;;4.65;3.05;;;358.90;2048.00;;;;;;5055882;28;20020;-78
2021/09/08 02:25:20;;;;;;;6.60;3.38;;;358.80;2022.40;;;;;;5049055;28;20081;-79
2021/09/08 02:27:46;;;;;;;7.28;3.42;;;358.80;2022.40;;;;;;5066896;28;20017;-79
2021/09/08 02:30:13;;;;;;;5.35;2.65;;;358.70;2022.40;;;;;;5073851;28;20036;-77
2021/09/08 02:32:38;;;;;;;4.80;3.35;;;358.70;2048.00;;;;;;5055766;28;20033;-77
2021/09/08 02:35:06;;;;;;;6.70;3.03;;;358.70;2048.00;;;;;;5073983;28;20021;-79
2021/09/08 02:37:32;;;;;;;4.55;3.20;;;358.70;2048.00;;;;;;5055860;28;20048;-78
2021/09/08 02:39:58;;;;;;;5.65;3.78;;;358.70;2048.00;;;;;;5071202;28;20497;-78
2021/09/08 02:42:25;;;;;;;4.75;2.92;;;358.70;2048.00;;;;;;5067654;28;20096;-78
2021/09/08 02:44:51;;;;;;;6.18;3.72;;;358.70;2048.00;;;;;;5052765;28;20017;-78
2021/09/08 02:47:16;;;;;;;5.65;3.50;;;358.70;2048.00;;;;;;5047686;28;20025;-79
2021/09/08 02:49:43;;;;;;;6.38;3.17;;;358.70;2048.00;;;;;;5046527;28;20029;-78
2021/09/08 02:52:09;;;;;;;6.50;3.53;;;358.60;2048.00;;;;;;5065832;28;20028;-79
2021/09/08 02:54:35;;;;;;;7.80;3.92;;;358.60;2048.00;;;;;;5073340;28;20017;-79
2021/09/08 02:57:01;;;;;;;6.10;3.88;;;358.60;2073.60;;;;;;5060296;28;20028;-79
2021/09/08 02:59:27;;;;;;;4.15;2.85;;;358.40;2073.60;;;;;;5064044;28;20025;-79
2021/09/08 03:01:53;;;;;;;6.72;3.35;;;333.70;2099.20;;;;;;5079654;28;20503;-79
2021/09/08 03:04:19;;;;;;;5.68;3.33;;;333.70;2099.20;;;;;;5067189;28;20381;-79
2021/09/08 03:06:48;;;;;;;5.10;3.67;;;333.70;2099.20;;;;;;5074708;28;20017;-79
2021/09/08 03:09:15;;;;;;;5.80;2.97;;;333.70;2099.20;;;;;;5074620;28;20032;-79
2021/09/08 03:11:42;;;;;;;6.05;3.45;;;333.70;2073.60;;;;;;5074833;28;20365;-80
2021/09/08 03:14:07;;;;;;;4.53;2.78;;;333.70;2073.60;;;;;;5057439;28;20476;-79
2021/09/08 03:16:33;;;;;;;7.22;4.07;;;333.70;2073.60;;;;;;5065737;28;20021;-78
2021/09/08 03:18:59;;;;;;;5.55;3.45;;;333.70;2073.60;;;;;;5067422;28;20020;-79
2021/09/08 03:21:25;;;;;;;9.93;3.63;;;333.70;2073.60;;;;;;5064328;28;20095;-79
2021/09/08 03:23:51;;;;;;;4.57;3.45;;;333.70;2073.60;;;;;;5064672;28;20024;-78
2021/09/08 03:26:16;;;;;;;7.43;3.70;;;333.70;2073.60;;;;;;5064370;28;20012;-78
2021/09/08 03:28:42;;;;;;;5.22;3.38;;;333.70;2099.20;;;;;;5059122;28;20070;-78
2021/09/08 03:31:08;;;;;;;8.55;3.58;;;333.70;2073.60;;;;;;5067084;28;20063;-79
2021/09/08 03:33:34;;;;;;;6.10;2.90;;;333.60;2073.60;;;;;;5054167;28;20045;-78
2021/09/08 03:35:59;;;;;;;4.68;3.28;;;333.60;2073.60;;;;;;5060745;28;20029;-79
2021/09/08 03:38:26;;;;;;;5.90;3.78;;;333.70;2073.60;;;;;;5041358;28;20465;-79
2021/09/08 03:40:52;;;;;;;7.65;3.80;;;333.60;2073.60;;;;;;5070660;28;20017;-79
2021/09/08 03:43:18;;;;;;;6.25;3.50;;;333.60;2073.60;;;;;;5067326;28;20031;-78
2021/09/08 03:45:45;;;;;;;5.68;3.17;;;333.60;2073.60;;;;;;5065571;28;20060;-78
2021/09/08 03:48:10;;;;;;;5.05;3.20;;;333.60;2073.60;;;;;;5050410;28;20111;-78
2021/09/08 03:50:36;;;;;;;9.45;3.20;;;333.60;2073.60;;;;;;5051818;28;20499;-78
2021/09/08 03:53:03;;;;;;;5.97;3.63;;;333.60;2073.60;;;;;;5070639;28;20041;-79
2021/09/08 03:55:28;;;;;;;7.13;3.60;;;333.60;2073.60;;;;;;5070255;28;20115;-79
2021/09/08 03:57:54;;;;;;;5.20;2.88;;;333.60;2073.60;;;;;;5070834;28;20452;-78
2021/09/08 04:00:20;;;;;;;6.10;3.75;;;333.60;2073.60;;;;;;5047544;28;20400;-79
2021/09/08 04:02:46;;;;;;;8.43;3.70;;;333.50;2073.60;;;;;;5075322;28;20424;-78
2021/09/08 04:05:11;;;;;;;9.85;3.75;;;333.50;2073.60;;;;;;5077460;28;20029;-79
2021/09/08 04:07:38;;;;;;;5.80;3.78;;;333.40;2073.60;;;;;;5058847;28;20029;-79
2021/09/08 04:10:04;;;;;;;5.25;3.45;;;333.60;2073.60;;;;;;5076393;28;20127;-79
2021/09/08 04:12:30;;;;;;;8.00;3.25;;;333.50;2073.60;;;;;;5059061;28;20109;-79
2021/09/08 04:14:56;;;;;;;7.25;3.63;;;333.50;2099.20;;;;;;5076605;28;20461;-79
2021/09/08 04:17:22;;;;;;;8.07;3.20;;;333.50;2073.60;;;;;;5075753;28;20032;-78
2021/09/08 04:19:47;;;;;;;7.57;3.30;;;333.60;2073.60;;;;;;5075618;28;20035;-78
2021/09/08 04:22:13;;;;;;;7.93;4.18;;;333.60;2099.20;;;;;;5051765;28;20032;-78
2021/09/08 04:24:39;;;;;;;5.82;3.78;;;333.50;2099.20;;;;;;5069140;28;20028;-78
2021/09/08 04:27:05;;;;;;;5.07;3.13;;;333.50;2099.20;;;;;;5049605;28;20035;-78
2021/09/08 04:29:30;;;;;;;5.88;3.53;;;333.40;2099.20;;;;;;5069352;28;20063;-78
2021/09/08 04:31:56;;;;;;;7.30;3.47;;;333.40;2099.20;;;;;;5054148;28;20051;-79
2021/09/08 04:34:22;;;;;;;7.00;3.28;;;333.40;2099.20;;;;;;5049697;28;20500;-79
2021/09/08 04:36:47;;;;;;;5.20;3.28;;;333.40;2099.20;;;;;;5069983;28;20523;-78
2021/09/08 04:39:13;;;;;;;8.15;3.38;;;333.40;2099.20;;;;;;5066349;28;20067;-78
2021/09/08 04:41:39;;;;;;;6.55;3.65;;;333.30;2099.20;;;;;;5066562;28;20052;-80
2021/09/08 04:44:05;;;;;;;6.80;3.25;;;333.20;2099.20;;;;;;5049043;28;20024;-79
2021/09/08 04:46:30;;;;;;;5.78;3.10;;;333.30;2099.20;;;;;;5061673;28;20029;-78
2021/09/08 04:48:57;;;;;;;5.72;3.92;;;333.30;2099.20;;;;;;5055854;28;20028;-78
2021/09/08 04:51:24;;;;;;;8.30;3.47;;;333.30;2099.20;;;;;;5055526;28;20021;-79
2021/09/08 04:53:50;;;;;;;6.38;3.70;;;333.30;2099.20;;;;;;5055303;28;20044;-78
2021/09/08 04:56:16;;;;;;;7.50;3.70;;;333.30;2099.20;;;;;;5037391;28;20029;-78
2021/09/08 04:58:42;;;;;;;4.47;3.08;;;333.30;2124.80;;;;;;5055689;28;20025;-78
2021/09/08 05:01:07;;;;;;;7.75;3.60;;;333.40;2124.80;;;;;;5045499;28;20044;-78
2021/09/08 05:03:33;;;;;;;7.88;3.50;;;333.40;2124.80;;;;;;5057883;28;20444;-79
2021/09/08 05:05:59;;;;;;;5.57;3.42;;;333.40;2124.80;;;;;;5058042;28;20037;-79
2021/09/08 05:08:25;;;;;;;7.57;4.13;;;333.40;2124.80;;;;;;5076223;28;20020;-79
2021/09/08 05:10:51;;;;;;;10.13;4.05;;;333.40;2124.80;;;;;;5057338;28;20062;-79
2021/09/08 05:13:16;;;;;;;7.25;3.35;;;333.50;2099.20;;;;;;5075573;28;20036;-79
2021/09/08 05:15:42;;;;;;;9.95;3.40;;;333.60;2099.20;;;;;;5058101;28;20542;-79
2021/09/08 05:18:08;;;;;;;10.27;3.78;;;333.60;2099.20;;;;;;5041051;28;20041;-79
2021/09/08 05:20:34;;;;;;;6.95;3.10;;;333.60;2099.20;;;;;;5075323;28;20024;-78
2021/09/08 05:22:59;;;;;;;8.43;4.05;;;333.60;2099.20;;;;;;5057826;28;20024;-78
2021/09/08 05:25:25;;;;;;;6.38;3.60;;;333.60;2099.20;;;;;;5075266;28;20020;-78
2021/09/08 05:27:52;;;;;;;6.68;3.72;;;333.70;2099.20;;;;;;5057360;28;20722;-78
2021/09/08 05:30:18;;;;;;;7.03;4.18;;;333.70;2124.80;;;;;;5057198;28;20545;-78
2021/09/08 05:32:44;;;;;;;5.60;3.60;;;333.70;2124.80;;;;;;5056984;28;20052;-78
2021/09/08 05:35:12;;;;;;;6.75;3.03;;;358.40;2124.80;;;;;;5057818;28;20447;-79
2021/09/08 05:37:39;;;;;;;5.40;3.25;;;358.40;2124.80;;;;;;5073449;28;20025;-78
2021/09/08 05:40:07;;;;;;;9.07;5.22;;;358.50;2099.20;;;;;;5056828;28;20428;-79
2021/09/08 05:42:33;;;;;;;7.85;3.92;;;358.50;2124.80;;;;;;5075234;28;20170;-79
2021/09/08 05:44:59;;;;;;;9.45;4.25;;;358.50;2124.80;;;;;;5056856;28;20464;-80
2021/09/08 05:47:24;;;;;;;7.70;4.05;;;358.50;2124.80;;;;;;5057215;28;20020;-77
2021/09/08 05:49:50;;;;;;;6.25;3.65;;;358.60;2124.80;;;;;;5058283;28;20456;-77
2021/09/08 05:52:16;;;;;;;8.10;4.90;;;358.60;2124.80;;;;;;5074385;28;20043;-78
2021/09/08 05:54:42;;;;;;;6.85;3.72;;;358.70;2099.20;;;;;;5073704;28;20028;-77
2021/09/08 05:57:08;;;;;;;7.90;4.22;;;358.90;2176.00;;;;;;5073594;28;20580;-78
2021/09/08 05:59:34;;;;;;;8.50;4.45;;;358.90;2124.80;;;;;;5055752;28;20037;-77
2021/09/08 06:02:00;;;;;;;5.90;3.78;;;358.90;2099.20;;;;;;5072315;28;20446;-77
2021/09/08 06:04:25;;;;;;;7.82;4.20;;;359.00;2099.20;;;;;;5072892;28;20039;-77
2021/09/08 06:06:55;;;;;;;6.38;3.58;;;359.00;2099.20;;;;;;5074191;28;20070;-77
2021/09/08 06:09:21;;;;;;;8.02;5.40;;;359.10;2099.20;;;;;;5074555;28;20464;-78
2021/09/08 06:11:47;;;;;;;8.18;4.75;;;359.10;2073.60;;;;;;5055656;28;20048;-78
2021/09/08 06:14:13;;;;;;;10.55;4.63;;;359.00;2073.60;;;;;;5073086;28;20536;-78
2021/09/08 06:16:39;;;;;;;8.18;4.47;;;359.00;2099.20;;;;;;5073461;28;20024;-77
2021/09/08 06:19:06;;;;;;;8.93;4.95;;;359.00;2073.60;;;;;;5073909;28;20472;-77
2021/09/08 06:21:31;;;;;;;6.10;4.30;;;359.10;2099.20;;;;;;5073786;28;20023;-78
2021/09/08 06:23:57;;;;;;;7.55;4.18;;;359.20;2099.20;;;;;;5073713;28;20087;-77
2021/09/08 06:26:24;;;;;;;7.60;4.47;;;359.30;2099.20;;;;;;5066928;28;20380;-77
2021/09/08 06:28:51;;;;;;;10.32;5.35;;;384.00;2073.60;;;;;;5070658;28;20021;-77
2021/09/08 06:31:18;;;;;;;10.05;4.63;;;384.00;2048.00;;;;;;5072647;28;20025;-78
2021/09/08 06:33:44;;;;;;;14.32;6.18;;;384.10;2022.40;;;;;;5073284;28;20032;-79
2021/09/08 06:36:11;;;;;;;8.25;4.90;;;384.20;2022.40;;;;;;5073533;28;20051;-79
2021/09/08 06:38:37;;;;;;;8.23;4.93;;;384.20;1996.80;;;;;;5054799;28;20427;-78
2021/09/08 06:41:03;;;;;;;8.68;4.80;;;384.40;1996.80;;;;;;5056123;28;20495;-78
2021/09/08 06:43:30;;;;;;;10.13;5.03;;;384.40;1996.80;;;;;;5056811;28;20028;-78
2021/09/08 06:45:56;;;;;;;6.32;3.50;;;384.50;1971.20;;;;;;5073927;28;20082;-79
2021/09/08 06:48:22;;;;;;;9.63;4.78;;;384.60;1971.20;;;;;;5073498;28;20027;-78
2021/09/08 06:50:49;;;;;;;11.07;5.80;;;384.70;1945.60;;;;;;5069512;28;20036;-76
2021/09/08 06:53:14;;;;;;;10.52;4.40;;;384.80;1920.00;;;;;;5072360;28;20037;-78
2021/09/08 06:55:40;;;;;;;8.20;4.60;;;384.80;1920.00;;;;;;5061652;28;20373;-78
2021/09/08 06:58:07;;;;;;;8.45;4.47;;;384.90;1945.60;;;;;;5062532;28;20047;-77
2021/09/08 07:00:33;;;;;;;10.70;4.95;;;409.70;1945.60;;;;;;5073590;28;20051;-79
2021/09/08 07:02:59;;;;;;;8.05;4.10;;;409.80;1971.20;;;;;;5075700;28;20032;-79
2021/09/08 07:05:25;;;;;;;10.07;4.90;;;410.00;1945.60;;;;;;5075858;28;20028;-79
2021/09/08 07:07:51;;;;;;;7.05;4.32;;;410.10;1868.80;;;;;;5076213;28;20031;-77
2021/09/08 07:10:17;;;;;;;7.82;4.70;;;410.20;1868.80;;;;;;5075714;28;20025;-77
2021/09/08 07:12:43;;;;;;;5.30;3.60;;;410.40;1868.80;;;;;;5075968;28;20029;-76
2021/09/08 07:15:11;;;;;;;6.82;3.92;;;410.50;1868.80;;;;;;5075679;28;20409;-80
2021/09/08 07:17:37;;;;;;;7.60;3.97;;;435.30;1868.80;;;;;;5076527;28;20047;-78
2021/09/08 07:20:04;;;;;;;9.43;4.60;;;435.50;1843.20;;;;;;5075476;28;20504;-79
2021/09/08 07:22:30;;;;;;;12.43;3.97;;;435.60;1843.20;;;;;;5076539;28;20040;-79
2021/09/08 07:24:56;;;;;;;11.70;5.38;;;435.70;1817.60;;;;;;5074343;28;20025;-79
2021/09/08 07:27:21;;;;;;;5.35;4.03;;;435.80;1766.40;;;;;;5076687;28;20077;-77
2021/09/08 07:29:47;;;;;;;6.50;3.72;;;435.90;1740.80;;;;;;5076330;28;20384;-77
2021/09/08 07:32:13;;;;;;;8.43;4.85;;;436.00;1740.80;;;;;;5058677;28;20174;-78
2021/09/08 07:34:39;;;;;;;10.00;5.22;;;436.10;1715.20;;;;;;5076542;28;20032;-77
2021/09/08 07:37:05;;;;;;;7.53;4.38;;;460.80;1766.40;;;;;;5076526;28;20047;-79
2021/09/08 07:39:31;;;;;;;9.13;4.85;;;460.90;1715.20;;;;;;5058075;28;20109;-78
2021/09/08 07:41:57;;;;;;;10.32;4.10;;;461.10;1740.80;;;;;;5058236;28;20048;-78
2021/09/08 07:44:23;;;;;;;6.28;5.10;;;461.30;1715.20;;;;;;5076672;28;20078;-79
2021/09/08 07:46:49;;;;;;;9.63;5.30;;;461.40;1689.60;;;;;;5076419;28;20021;-80
2021/09/08 07:49:14;;;;;;;9.27;5.50;;;461.60;1638.40;;;;;;5076143;28;20036;-79
2021/09/08 07:51:40;;;;;;;8.23;5.10;;;461.60;1612.80;;;;;;5076156;28;20052;-78
2021/09/08 07:54:06;;;;;;;10.68;5.38;;;461.70;1587.20;;;;;;5076028;28;20507;-80
2021/09/08 07:56:32;;;;;;;6.78;4.10;;;486.40;1612.80;;;;;;5076126;28;20453;-80
2021/09/08 07:58:57;;;;;;;7.43;4.00;;;486.50;1587.20;;;;;;5076063;28;20054;-80
2021/09/08 08:01:23;;;;;;;6.35;3.92;;;486.70;1587.20;;;;;;5076075;28;20055;-80
2021/09/08 08:03:49;;;;;;;5.63;3.40;;;486.80;1612.80;;;;;;5076043;28;20028;-79
2021/09/08 08:06:14;;;;;;;6.82;3.92;;;487.00;1587.20;;;;;;5076016;28;20020;-79
2021/09/08 08:08:40;;;;;;;7.45;3.28;;;487.20;1561.60;;;;;;5058123;28;20059;-80
2021/09/08 08:11:06;;;;;;;7.25;3.95;;;487.20;1510.40;;;;;;5076078;28;20376;-79
2021/09/08 08:13:32;;;;;;;6.60;3.92;;;512.00;1510.40;;;;;;5076134;28;20068;-79
2021/09/08 08:15:57;;;;;;;5.90;3.55;;;512.10;1536.00;;;;;;5075730;28;20029;-80
2021/09/08 08:18:23;;;;;;;6.95;3.90;;;512.10;1459.20;;;;;;5075987;28;20031;-80
2021/09/08 08:20:49;;;;;;;6.65;3.90;;;512.20;1510.40;;;;;;5058170;28;20024;-78
2021/09/08 08:23:15;;;;;;;4.18;2.90;;;512.30;1484.80;;;;;;5076093;28;20028;-79
2021/09/08 08:25:41;;;;;;;4.18;2.78;;;512.50;1484.80;;;;;;5075600;28;20025;-78
2021/09/08 08:28:07;;;;;;;4.25;2.80;;;512.60;1433.60;;;;;;5075524;28;20028;-77
2021/09/08 08:30:34;;;;;;;5.97;2.92;;;512.80;1459.20;;;;;;5075601;28;20504;-78
2021/09/08 08:33:00;;;;;;;6.72;2.88;;;537.60;1459.20;;;;;;5075568;28;20392;-78
2021/09/08 08:35:26;;;;;;;6.18;3.40;;;537.70;1433.60;;;;;;5057718;28;20025;-78
2021/09/08 08:37:52;;;;;;;8.38;2.85;;;537.80;1433.60;;;;;;5074985;28;20024;-79
2021/09/08 08:40:21;;;;;;;4.65;3.03;;;537.80;1408.00;;;;;;5075268;28;20027;-78
2021/09/08 08:42:48;;;;;;;5.40;2.90;;;537.70;1459.20;;;;;;5057396;28;20021;-81
2021/09/08 08:45:14;;;;;;;5.05;2.45;;;537.90;1433.60;;;;;;5075409;28;20476;-80
2021/09/08 08:47:40;;;;;;;4.00;2.80;;;538.00;1433.60;;;;;;5075567;28;20024;-79
2021/09/08 08:50:11;;;;;;;3.85;2.50;;;538.10;1408.00;;;;;;5074886;28;20017;-77
2021/09/08 08:52:38;;;;;;;5.50;3.03;;;538.10;1408.00;;;;;;5072966;28;20024;-79
2021/09/08 08:55:05;;;;;;;4.25;2.60;;;538.20;1408.00;;;;;;5075762;28;20020;-78
2021/09/08 08:57:31;;;;;;;6.80;2.47;;;538.20;1382.40;;;;;;5064508;28;20032;-78
2021/09/08 08:59:56;;;;;;;5.43;2.40;;;538.10;1382.40;;;;;;5057366;28;20102;-78
2021/09/08 09:02:29;;;;;;;4.22;3.45;;;538.10;1408.00;;;;;;5074147;28;20081;-78
2021/09/08 09:05:00;;;;;;;6.45;2.65;;;538.20;1382.40;;;;;;5071345;28;20024;-80
2021/09/08 09:07:36;;;;;;;4.50;2.65;;;538.40;1382.40;;;;;;5053022;28;20423;-77
2021/09/08 09:10:06;;;;;;;3.38;2.10;;;538.50;1382.40;;;;;;5049684;28;20063;-79
2021/09/08 09:12:38;;;;;;;5.25;3.13;;;563.20;1433.60;;;;;;5074334;28;20158;-79
2021/09/08 09:15:18;;;;;;;4.13;2.17;;;563.50;1433.60;;;;;;5052059;28;20442;-78
2021/09/08 09:17:46;;;;;;;4.57;2.65;;;563.60;1356.80;;;;;;5073433;28;20040;-80
2021/09/08 09:20:20;;;;;;;4.05;2.67;;;563.60;1356.80;;;;;;5056633;28;20056;-77
2021/09/08 09:22:49;;;;;;;4.57;2.67;;;563.70;1408.00;;;;;;5055749;28;20081;-77
2021/09/08 09:25:18;;;;;;;3.50;2.42;;;563.90;1408.00;;;;;;5070846;28;20024;-79
2021/09/08 09:27:50;;;;;;;5.90;2.40;;;564.10;1382.40;;;;;;5050842;28;20120;-80
2021/09/08 09:30:27;;;;;;;4.30;2.92;;;588.80;1331.20;;;;;;5056528;28;20037;-80
2021/09/08 09:32:55;;;;;;;4.50;2.63;;;589.00;1331.20;;;;;;5075581;28;20106;-79
2021/09/08 09:35:23;;;;;;;4.07;1.92;;;589.10;1356.80;;;;;;5078773;28;20107;-81
2021/09/08 09:37:55;;;;;;;4.10;2.33;;;589.20;1331.20;;;;;;5076037;28;20056;-80
2021/09/08 09:40:32;;;;;;;6.53;2.50;;;589.20;1305.60;;;;;;5051060;28;20064;-80
2021/09/08 09:43:10;;;;;;;5.35;2.40;;;589.40;1331.20;;;;;;5064594;28;20125;-79
2021/09/08 09:45:37;;;;;;;4.60;2.63;;;589.40;1305.60;;;;;;5070607;28;20377;-81
2021/09/08 09:48:04;;;;;;;6.30;3.28;;;589.30;1280.00;;;;;;5073107;28;20104;-80
2021/09/08 09:50:31;;;;;;;4.07;2.33;;;589.30;1305.60;;;;;;5071243;28;20027;-81
2021/09/08 09:52:57;;;;;;;6.03;2.70;;;589.50;1305.60;;;;;;5072857;28;20546;-82
2021/09/08 09:55:24;;;;;;;5.40;2.80;;;589.50;1280.00;;;;;;5044666;28;20036;-82
2021/09/08 09:57:50;;;;;;;3.15;1.70;;;614.40;1305.60;;;;;;5072312;28;20024;-80
2021/09/08 10:00:19;;;;;;;4.10;2.05;;;614.50;1228.80;;;;;;5070429;28;20554;-79
2021/09/08 10:02:46;;;;;;;2.80;1.50;;;614.40;1280.00;;;;;;5054990;28;20123;-82
2021/09/08 10:05:14;;;;;;;20.92;13.68;;;614.60;1254.40;;;;;;5074423;28;20075;-79
2021/09/08 10:07:40;;;;;;;26.33;14.80;;;614.60;1254.40;;;;;;5055909;28;20060;-81
2021/09/08 10:10:13;;;;;;;12.07;8.48;;;614.60;1228.80;;;;;;5074396;28;20024;-76
2021/09/08 10:12:43;;;;;;;;;;;614.60;1254.40;;;;;;5075196;28;20033;-83
2021/09/08 10:15:11;;;;;;;6.18;2.83;;;614.60;1254.40;;;;;;5074900;28;20326;-83
2021/09/08 10:17:41;;;;;;;7.38;3.95;;;614.50;1254.40;;;;;;5084859;28;20031;-81
2021/09/08 10:20:08;;;;;;;8.35;2.20;;;614.60;1254.40;;;;;;5094092;28;20439;-80
2021/09/08 10:22:42;;;;;;;14.27;8.32;;;614.80;1254.40;;;;;;5074989;28;20152;-78
2021/09/08 10:25:16;;;;;;;4.80;2.90;;;615.00;1228.80;;;;;;5073805;28;20043;-83
2021/09/08 10:27:43;;;;;;;5.78;2.80;;;615.20;1254.40;;;;;;5073880;28;20383;-82
2021/09/08 10:30:10;;;;;;;3.20;1.98;;;640.10;1254.40;;;;;;5055267;28;20128;-81
2021/09/08 10:32:37;;;;;;;5.30;1.88;;;640.40;1177.60;;;;;;5073542;28;20059;-80
2021/09/08 10:35:14;;;;;;;40.75;23.25;;;640.40;1152.00;;;;;;5074126;28;20071;-82
2021/09/08 10:37:47;;;;;;;13.88;8.85;;;640.70;1203.20;;;;;;5055656;28;20021;-79
2021/09/08 10:40:16;;;;;;;8.20;3.53;;;640.90;1177.60;;;;;;5053095;28;20590;-79
2021/09/08 10:42:56;;;;;;;5.07;2.35;;;665.70;1228.80;;;;;;5069397;28;20025;-76
2021/09/08 10:45:25;;;;;;;4.03;2.72;;;665.80;1152.00;;;;;;5060709;28;20177;-78
2021/09/08 10:47:52;;;;;;;3.30;2.40;;;665.80;1177.60;;;;;;5072855;28;20031;-79
2021/09/08 10:50:41;;;;;;;6.93;2.83;;;665.80;1152.00;;;;;;5066441;28;20063;-79
2021/09/08 10:53:24;;;;;;;4.53;2.22;;;666.00;1126.40;;;;;;5064252;28;20043;-79
2021/09/08 10:55:52;;;;;;;3.80;2.08;;;665.80;1100.80;;;;;;5064894;28;20063;-75
2021/09/08 10:58:18;;;;;;;5.15;2.40;;;640.90;1100.80;;;;;;5066261;28;20031;-78
2021/09/08 11:00:46;;;;;;;4.07;2.15;;;665.60;1152.00;;;;;;5066108;28;20040;-78
2021/09/08 11:03:15;;;;;;;4.10;2.20;;;665.70;1126.40;;;;;;5068228;28;20096;-81
2021/09/08 11:06:00;;;;;;;6.50;2.58;;;665.80;1126.40;;;;;;5069743;28;20495;-80
2021/09/08 11:08:33;;;;;;;6.60;2.83;;;666.10;1177.60;;;;;;5071792;28;20017;-82
2021/09/08 11:11:07;;;;;;;4.53;2.55;;;666.00;1152.00;;;;;;5071089;28;20028;-81
2021/09/08 11:13:33;;;;;;;4.95;2.72;;;666.00;1100.80;;;;;;5059628;28;20033;-78
2021/09/08 11:15:59;;;;;;;4.95;2.55;;;665.80;1126.40;;;;;;5079536;28;20017;-79
2021/09/08 11:18:35;;;;;;;5.35;2.63;;;665.70;1126.40;;;;;;5082243;28;20032;-81
2021/09/08 11:21:05;;;;;;;4.95;2.67;;;665.70;1152.00;;;;;;5070924;28;20044;-82
2021/09/08 11:23:32;;;;;;;4.00;1.80;;;666.00;1152.00;;;;;;5083443;28;20118;-78
2021/09/08 11:26:08;;;;;;;3.15;2.05;;;666.10;1177.60;;;;;;5084585;28;20016;-81
2021/09/08 11:28:34;;;;;;;3.65;2.00;;;666.40;1100.80;;;;;;5086164;28;20021;-80
2021/09/08 11:31:09;;;;;;;3.90;1.63;;;666.50;1075.20;;;;;;5066753;28;20052;-80
2021/09/08 11:33:36;;;;;;;3.45;1.90;;;691.30;1075.20;;;;;;5070433;28;20040;-79
2021/09/08 11:36:13;;;;;;;3.35;1.60;;;691.50;1024.00;;;;;;5058875;28;20037;-79
2021/09/08 11:38:45;;;;;;;2.90;1.70;;;691.60;998.40;;;;;;5079591;28;21083;-78
2021/09/08 11:41:11;;;;;;;2.90;1.48;;;691.60;998.40;;;;;;5055942;28;20131;-79
2021/09/08 11:43:42;;;;;;;3.22;1.98;;;691.60;1024.00;;;;;;5056022;28;20495;-77
2021/09/08 11:46:13;;;;;;;2.88;1.45;;;691.70;1024.00;;;;;;5074924;28;20523;-78
2021/09/08 11:48:40;;;;;;;4.03;1.85;;;691.90;1024.00;;;;;;5057341;28;20024;-80
2021/09/08 11:51:07;;;;;;;2.33;1.55;;;716.90;1024.00;;;;;;5071953;28;20028;-79
2021/09/08 11:53:34;;;;;;;4.57;1.95;;;716.90;972.80;;;;;;5073451;28;20032;-77
2021/09/08 11:56:09;;;;;;;3.42;1.67;;;716.80;972.80;;;;;;5075341;28;20108;-79
2021/09/08 11:58:35;;;;;;;4.70;1.92;;;692.00;947.20;;;;;;5060814;28;20483;-77
2021/09/08 12:01:09;;;;;;;2.85;2.05;;;716.80;972.80;;;;;;5076639;28;20540;-76
2021/09/08 12:04:01;;;;;;;3.38;1.92;;;716.90;998.40;;;;;;5073806;28;20353;-77
2021/09/08 12:06:29;;;;;;;6.78;2.67;;;717.00;998.40;;;;;;5069350;28;20047;-78
2021/09/08 12:08:54;;;;;;;4.47;1.75;;;717.00;972.80;;;;;;5076094;28;20100;-77
2021/09/08 12:11:40;;;;;;;4.03;1.75;;;716.90;947.20;;;;;;5059497;28;20063;-76
2021/09/08 12:14:26;;;;;;;3.33;1.80;;;717.00;947.20;;;;;;5063869;28;20123;-75
2021/09/08 12:16:54;;;;;;;3.85;1.77;;;692.10;921.60;;;;;;5073004;28;20028;-76